createdAt,value
2023-05-15T00:01:01.903Z,11.17
2023-05-15T00:03:30.252Z,10.70
2023-05-15T00:05:58.560Z,11.43
2023-05-15T00:08:28.149Z,11.40
2023-05-15T00:11:01.700Z,10.80
2023-05-15T00:13:30.552Z,11.50
2023-05-15T00:15:58.842Z,13.80
2023-05-15T00:18:27.306Z,11.70
2023-05-15T00:20:55.657Z,13.10
2023-05-15T00:23:23.910Z,12.77
2023-05-15T00:25:54.071Z,13.27
2023-05-15T00:28:22.211Z,12.60
2023-05-15T00:30:50.527Z,12.40
2023-05-15T00:33:18.779Z,12.57
2023-05-15T00:35:47.154Z,11.60
2023-05-15T00:38:15.603Z,13.37
2023-05-15T00:40:45.430Z,13.07
2023-05-15T00:43:16.940Z,11.63
2023-05-15T00:45:45.816Z,12.17
2023-05-15T00:48:14.401Z,13.23
2023-05-15T00:50:43.459Z,12.37
2023-05-15T00:53:12.131Z,10.20
2023-05-15T00:55:41.474Z,11.17
2023-05-15T00:58:11.864Z,10.80
2023-05-15T01:00:42.287Z,12.80
2023-05-15T01:03:10.593Z,12.00
2023-05-15T01:05:39.112Z,11.67
2023-05-15T01:08:20.064Z,11.10
2023-05-15T01:10:49.755Z,10.67
2023-05-15T01:13:20.683Z,11.17
2023-05-15T01:15:50.815Z,12.00
2023-05-15T01:18:19.031Z,11.47
2023-05-15T01:21:16.917Z,13.83
2023-05-15T01:24:03.685Z,13.80
2023-05-15T01:26:57.697Z,12.93
2023-05-15T01:29:31.632Z,13.90
2023-05-15T01:32:03.783Z,12.23
2023-05-15T01:34:39.620Z,12.83
2023-05-15T01:37:09.944Z,12.63
2023-05-15T01:39:41.126Z,15.27
2023-05-15T01:42:12.046Z,12.90
2023-05-15T01:44:47.225Z,13.50
2023-05-15T01:47:18.946Z,12.40
2023-05-15T01:49:50.521Z,13.57
2023-05-15T01:52:22.387Z,15.73
2023-05-15T01:54:51.230Z,15.57
2023-05-15T01:57:20.601Z,17.27
2023-05-15T01:59:52.249Z,14.10
2023-05-15T02:02:21.201Z,15.60
2023-05-15T02:04:51.295Z,14.03
2023-05-15T02:07:21.855Z,14.90
2023-05-15T02:09:52.145Z,16.70
2023-05-15T02:12:22.390Z,13.93
2023-05-15T02:14:53.158Z,14.17
2023-05-15T02:17:22.154Z,17.37
2023-05-15T02:19:51.309Z,14.43
2023-05-15T02:22:19.885Z,14.63
2023-05-15T02:24:48.126Z,13.80
2023-05-15T02:27:23.637Z,14.40
2023-05-15T02:30:04.381Z,14.53
2023-05-15T02:32:41.610Z,14.90
2023-05-15T02:35:19.879Z,14.50
2023-05-15T02:37:52.199Z,17.20
2023-05-15T02:40:22.881Z,14.90
2023-05-15T02:42:53.525Z,13.70
2023-05-15T02:45:25.685Z,16.07
2023-05-15T02:47:55.004Z,12.97
2023-05-15T02:50:23.785Z,14.33
2023-05-15T02:52:52.080Z,13.70
2023-05-15T02:55:20.674Z,12.90
2023-05-15T02:57:48.835Z,13.50
2023-05-15T03:00:17.600Z,13.27
2023-05-15T03:02:47.194Z,13.53
2023-05-15T03:05:15.469Z,15.60
2023-05-15T03:07:43.639Z,16.67
2023-05-15T03:10:11.854Z,15.00
2023-05-15T03:12:41.070Z,16.27
2023-05-15T03:15:09.927Z,17.10
2023-05-15T03:17:38.177Z,16.70
2023-05-15T03:20:09.736Z,15.37
2023-05-15T03:22:37.928Z,15.00
2023-05-15T03:25:07.049Z,14.07
2023-05-15T03:27:35.518Z,14.63
2023-05-15T03:30:04.317Z,14.17
2023-05-15T03:32:32.665Z,14.77
2023-05-15T03:35:00.899Z,15.40
2023-05-15T03:37:30.570Z,16.27
2023-05-15T03:39:59.342Z,15.23
2023-05-15T03:42:27.961Z,15.50
2023-05-15T03:44:56.863Z,13.83
2023-05-15T03:47:25.138Z,14.67
2023-05-15T03:49:54.292Z,14.70
2023-05-15T03:52:22.490Z,15.00
2023-05-15T03:54:52.355Z,15.77
2023-05-15T03:57:20.611Z,15.50
2023-05-15T03:59:48.783Z,17.50
2023-05-15T04:02:16.995Z,14.30
2023-05-15T04:04:45.371Z,14.67
2023-05-15T04:07:13.652Z,14.90
2023-05-15T04:09:41.841Z,14.00
2023-05-15T04:12:11.424Z,15.60
2023-05-15T04:14:41.968Z,15.60
2023-05-15T04:17:10.169Z,15.30
2023-05-15T04:19:39.132Z,13.80
2023-05-15T04:22:08.066Z,15.07
2023-05-15T04:24:36.201Z,14.93
2023-05-15T04:27:04.785Z,15.10
2023-05-15T04:29:34.847Z,14.50
2023-05-15T04:32:03.347Z,16.33
2023-05-15T04:34:31.581Z,15.93
2023-05-15T04:36:59.774Z,16.23
2023-05-15T04:39:27.929Z,16.70
2023-05-15T04:41:56.186Z,16.53
2023-05-15T04:44:24.417Z,20.73
2023-05-15T04:46:53.899Z,18.30
2023-05-15T04:49:22.073Z,16.50
2023-05-15T04:51:50.259Z,17.37
2023-05-15T04:54:18.476Z,17.47
2023-05-15T04:56:46.934Z,16.37
2023-05-15T04:59:15.921Z,16.90
2023-05-15T05:01:44.490Z,18.00
2023-05-15T05:04:14.684Z,16.10
2023-05-15T05:06:43.148Z,26.00
2023-05-15T05:09:11.410Z,18.80
2023-05-15T05:11:43.506Z,19.30
2023-05-15T05:14:12.079Z,17.20
2023-05-15T05:16:40.586Z,17.53
2023-05-15T05:19:09.456Z,15.80
2023-05-15T05:21:39.177Z,15.87
2023-05-15T05:24:07.464Z,17.93
2023-05-15T05:26:35.707Z,16.10
2023-05-15T05:29:03.908Z,15.80
2023-05-15T05:31:32.289Z,16.40
2023-05-15T05:34:00.505Z,16.00
2023-05-15T05:36:28.756Z,17.27
2023-05-15T05:38:58.443Z,15.50
2023-05-15T05:41:30.285Z,16.93
2023-05-15T05:43:58.437Z,19.00
2023-05-15T05:46:27.336Z,17.40
2023-05-15T05:48:55.607Z,16.90
2023-05-15T05:51:23.872Z,16.70
2023-05-15T05:53:52.045Z,16.70
2023-05-15T05:56:22.675Z,16.07
2023-05-15T05:58:51.274Z,16.67
2023-05-15T06:01:19.481Z,16.97
2023-05-15T06:03:47.748Z,17.17
2023-05-15T06:06:16.124Z,20.37
2023-05-15T06:08:44.489Z,17.60
2023-05-15T06:11:12.906Z,16.37
2023-05-15T06:13:43.400Z,15.60
2023-05-15T06:16:11.590Z,15.70
2023-05-15T06:18:39.816Z,15.00
2023-05-15T06:21:08.223Z,18.00
2023-05-15T06:23:37.355Z,14.70
2023-05-15T06:26:05.701Z,15.77
2023-05-15T06:28:34.439Z,15.77
2023-05-15T06:31:04.287Z,15.57
2023-05-15T06:33:32.887Z,17.00
2023-05-15T06:36:01.424Z,17.13
2023-05-15T06:38:29.614Z,14.70
2023-05-15T06:40:58.130Z,15.10
2023-05-15T06:43:26.275Z,14.10
2023-05-15T06:45:54.536Z,14.33
2023-05-15T06:48:24.606Z,15.40
2023-05-15T06:50:52.804Z,13.97
2023-05-15T06:53:21.428Z,15.17
2023-05-15T06:55:49.922Z,15.77
2023-05-15T06:58:18.286Z,15.87
2023-05-15T07:00:46.489Z,14.80
2023-05-15T07:03:16.698Z,18.33
2023-05-15T07:05:46.521Z,15.93
2023-05-15T07:08:15.073Z,14.27
2023-05-15T07:10:43.385Z,17.10
2023-05-15T07:13:11.618Z,13.33
2023-05-15T07:15:40.480Z,14.27
2023-05-15T07:18:08.821Z,12.77
2023-05-15T07:20:37.404Z,12.80
2023-05-15T07:23:07.381Z,13.30
2023-05-15T07:25:35.604Z,13.07
2023-05-15T07:28:03.821Z,11.67
2023-05-15T07:30:32.056Z,11.07
2023-05-15T07:33:00.966Z,10.17
2023-05-15T07:35:29.512Z,10.97
2023-05-15T07:37:57.695Z,10.40
2023-05-15T07:40:27.446Z,10.90
2023-05-15T07:42:55.802Z,10.83
2023-05-15T07:45:24.374Z,11.07
2023-05-15T07:47:53.023Z,9.43
2023-05-15T07:50:21.427Z,10.13
2023-05-15T07:52:49.942Z,8.70
2023-05-15T07:55:18.121Z,12.03
2023-05-15T07:57:53.370Z,9.53
2023-05-15T08:00:22.661Z,9.47
2023-05-15T08:02:51.035Z,8.30
2023-05-15T08:05:19.416Z,8.83
2023-05-15T08:07:47.585Z,7.87
2023-05-15T08:10:16.128Z,8.33
2023-05-15T08:12:46.532Z,7.07
2023-05-15T08:15:16.177Z,7.83
2023-05-15T08:17:44.611Z,9.77
2023-05-15T08:20:14.080Z,7.67
2023-05-15T08:22:42.219Z,7.40
2023-05-15T08:25:10.949Z,8.37
2023-05-15T08:27:39.153Z,8.83
2023-05-15T08:30:08.668Z,7.43
2023-05-15T08:32:38.522Z,7.67
2023-05-15T08:35:08.209Z,8.50
2023-05-15T08:37:36.567Z,6.67
2023-05-15T08:40:07.975Z,7.90
2023-05-15T08:42:44.267Z,10.77
2023-05-15T08:45:13.815Z,7.17
2023-05-15T08:47:44.234Z,6.63
2023-05-15T08:50:14.616Z,7.43
2023-05-15T08:52:43.961Z,6.20
2023-05-15T08:55:12.589Z,7.03
2023-05-15T08:57:42.174Z,7.10
2023-05-15T09:00:14.527Z,6.13
2023-05-15T09:02:44.493Z,6.60
2023-05-15T09:05:12.694Z,5.90
2023-05-15T09:07:41.793Z,7.07
2023-05-15T09:10:11.114Z,7.53
2023-05-15T09:12:44.058Z,5.87
2023-05-15T09:15:14.353Z,6.97
2023-05-15T09:17:44.409Z,6.73
2023-05-15T09:20:26.921Z,10.80
2023-05-15T09:22:55.424Z,5.53
2023-05-15T09:25:40.119Z,7.73
2023-05-15T09:28:10.577Z,5.87
2023-05-15T09:30:39.433Z,9.87
2023-05-15T09:33:10.223Z,6.70
2023-05-15T09:35:40.615Z,6.97
2023-05-15T09:38:11.606Z,7.60
2023-05-15T09:40:41.014Z,10.03
2023-05-15T09:43:11.353Z,6.40
2023-05-15T09:45:39.985Z,8.50
2023-05-15T09:48:11.899Z,5.70
2023-05-15T09:50:41.025Z,5.90
2023-05-15T09:53:12.787Z,5.60
2023-05-15T09:55:42.981Z,6.67
2023-05-15T09:58:12.242Z,7.13
2023-05-15T10:00:48.568Z,6.00
2023-05-15T10:03:20.631Z,7.03
2023-05-15T10:05:49.125Z,6.60
2023-05-15T10:08:26.859Z,5.97
2023-05-15T10:10:55.387Z,6.47
2023-05-15T10:13:24.156Z,5.00
2023-05-15T10:15:53.954Z,5.50
2023-05-15T10:18:28.592Z,6.90
2023-05-15T10:20:57.995Z,4.97
2023-05-15T10:23:27.066Z,5.53
2023-05-15T10:26:02.944Z,5.70
2023-05-15T10:28:32.414Z,8.67
2023-05-15T10:31:02.761Z,6.13
2023-05-15T10:33:33.733Z,5.20
2023-05-15T10:36:02.986Z,4.57
2023-05-15T10:38:32.244Z,4.97
2023-05-15T10:41:15.669Z,5.90
2023-05-15T10:43:45.797Z,6.00
2023-05-15T10:46:15.012Z,5.70
2023-05-15T10:48:44.745Z,5.90
2023-05-15T10:51:17.623Z,4.97
2023-05-15T10:53:46.737Z,5.40
2023-05-15T10:56:16.660Z,5.43
2023-05-15T10:58:47.351Z,5.43
2023-05-15T11:01:33.097Z,4.87
2023-05-15T11:04:13.609Z,5.10
2023-05-15T11:06:43.936Z,5.10
2023-05-15T11:09:34.986Z,5.50
2023-05-15T11:12:04.258Z,5.03
2023-05-15T11:14:33.516Z,6.30
2023-05-15T11:17:04.007Z,6.20
2023-05-15T11:19:55.896Z,6.00
2023-05-15T11:22:29.801Z,7.37
2023-05-15T11:25:00.805Z,6.17
2023-05-15T11:27:31.910Z,5.27
2023-05-15T11:30:10.007Z,5.57
2023-05-15T11:32:45.900Z,6.43
2023-05-15T11:35:20.366Z,4.60
2023-05-15T11:37:50.222Z,5.10
2023-05-15T11:40:24.394Z,4.00
2023-05-15T11:43:08.120Z,3.77
2023-05-15T11:45:38.470Z,8.20
2023-05-15T11:48:12.405Z,4.20
2023-05-15T11:50:43.004Z,2.30
2023-05-15T11:53:11.524Z,1.63
2023-05-15T11:55:41.561Z,0.90
2023-05-15T11:58:14.077Z,1.33
2023-05-15T12:00:43.149Z,9.40
2023-05-15T12:03:18.551Z,1.00
2023-05-15T12:05:58.124Z,1.77
2023-05-15T12:08:31.555Z,1.13
2023-05-15T12:11:00.495Z,0.80
2023-05-15T12:13:29.086Z,3.53
2023-05-15T12:15:57.786Z,4.47
2023-05-15T12:18:26.350Z,1.30
2023-05-15T12:20:56.471Z,3.80
2023-05-15T12:23:26.702Z,1.73
2023-05-15T12:25:59.945Z,1.70
2023-05-15T12:28:29.779Z,1.70
2023-05-15T12:30:59.115Z,1.80
2023-05-15T12:33:27.542Z,10.77
2023-05-15T12:36:01.142Z,2.20
2023-05-15T12:38:30.592Z,2.43
2023-05-15T12:40:59.364Z,5.63
2023-05-15T12:43:28.513Z,2.50
2023-05-15T12:45:57.800Z,2.47
2023-05-15T12:48:30.988Z,5.43
2023-05-15T12:51:07.798Z,2.80
2023-05-15T12:53:39.452Z,4.50
2023-05-15T12:56:09.006Z,2.73
2023-05-15T12:58:38.274Z,3.20
2023-05-15T13:01:06.910Z,2.97
2023-05-15T13:03:35.555Z,2.83
2023-05-15T13:06:04.258Z,4.60
2023-05-15T13:08:33.843Z,4.40
2023-05-15T13:11:02.025Z,3.50
2023-05-15T13:13:46.612Z,4.97
2023-05-15T13:16:22.521Z,5.00
2023-05-15T13:18:50.869Z,5.23
2023-05-15T13:21:19.473Z,6.53
2023-05-15T13:23:49.212Z,6.10
2023-05-15T13:26:17.380Z,5.50
2023-05-15T13:28:45.579Z,6.50
2023-05-15T13:31:13.832Z,7.53
2023-05-15T13:33:42.081Z,6.90
2023-05-15T13:36:25.905Z,5.87
2023-05-15T13:38:56.024Z,7.40
2023-05-15T13:41:24.709Z,5.00
2023-05-15T13:43:52.864Z,5.60
2023-05-15T13:46:21.092Z,5.77
2023-05-15T13:48:49.627Z,5.27
2023-05-15T13:51:17.874Z,5.00
2023-05-15T13:53:46.009Z,4.37
2023-05-15T13:56:16.340Z,5.70
2023-05-15T13:58:44.522Z,3.83
2023-05-15T14:01:13.087Z,3.60
2023-05-15T14:03:41.358Z,3.23
2023-05-15T14:06:10.134Z,4.03
2023-05-15T14:08:38.288Z,3.87
2023-05-15T14:11:06.474Z,3.17
2023-05-15T14:13:36.014Z,4.00
2023-05-15T14:16:04.241Z,3.87
2023-05-15T14:18:32.452Z,4.70
2023-05-15T14:21:00.723Z,3.47
2023-05-15T14:23:29.295Z,3.40
2023-05-15T14:25:57.887Z,3.80
2023-05-15T14:28:26.080Z,3.50
2023-05-15T14:30:55.590Z,3.67
2023-05-15T14:33:23.798Z,3.30
2023-05-15T14:35:52.418Z,2.90
2023-05-15T14:38:20.592Z,3.40
2023-05-15T14:40:48.789Z,3.73
2023-05-15T14:43:17.200Z,2.93
2023-05-15T14:45:45.396Z,3.40
2023-05-15T14:48:14.883Z,5.67
2023-05-15T14:50:43.059Z,3.40
2023-05-15T14:53:11.602Z,3.00
2023-05-15T14:55:39.785Z,2.87
2023-05-15T14:58:11.187Z,3.10
2023-05-15T15:00:39.387Z,4.17
2023-05-15T15:03:08.189Z,3.10
2023-05-15T15:05:37.814Z,3.50
2023-05-15T15:08:07.169Z,3.20
2023-05-15T15:10:36.781Z,2.77
2023-05-15T15:13:05.761Z,3.23
2023-05-15T15:15:35.480Z,2.93
2023-05-15T15:18:03.972Z,3.70
2023-05-15T15:20:32.526Z,3.23
2023-05-15T15:23:02.160Z,3.40
2023-05-15T15:25:32.137Z,3.63
2023-05-15T15:28:00.985Z,3.57
2023-05-15T15:30:29.216Z,2.80
2023-05-15T15:32:57.952Z,4.03
2023-05-15T15:35:26.229Z,3.10
2023-05-15T15:37:54.350Z,3.17
2023-05-15T15:40:24.710Z,2.73
2023-05-15T15:42:54.213Z,3.60
2023-05-15T15:45:22.811Z,3.43
2023-05-15T15:47:51.112Z,3.10
2023-05-15T15:50:19.389Z,3.90
2023-05-15T15:52:47.553Z,3.57
2023-05-15T15:55:15.818Z,4.10
2023-05-15T15:57:45.792Z,4.03
2023-05-15T16:00:15.330Z,3.67
2023-05-15T16:02:43.657Z,3.93
2023-05-15T16:05:11.909Z,4.77
2023-05-15T16:07:40.116Z,5.83
2023-05-15T16:10:27.354Z,4.53
2023-05-15T16:12:57.075Z,4.70
2023-05-15T16:15:25.286Z,4.00
2023-05-15T16:17:54.681Z,3.50
2023-05-15T16:20:24.066Z,2.77
2023-05-15T16:22:52.709Z,3.13
2023-05-15T16:25:21.272Z,2.40
2023-05-15T16:27:49.497Z,3.20
2023-05-15T16:30:21.437Z,3.90
2023-05-15T16:32:50.376Z,2.60
2023-05-15T16:35:20.596Z,2.50
2023-05-15T16:37:48.800Z,2.27
2023-05-15T16:40:16.945Z,2.93
2023-05-15T16:42:45.121Z,2.23
2023-05-15T16:45:13.428Z,2.73
2023-05-15T16:47:43.150Z,2.40
2023-05-15T16:50:11.851Z,2.30
2023-05-15T16:52:45.330Z,3.33
2023-05-15T16:55:16.185Z,3.17
2023-05-15T16:57:45.077Z,2.93
2023-05-15T17:00:14.744Z,3.53
2023-05-15T17:02:44.892Z,3.10
2023-05-15T17:05:14.040Z,3.43
2023-05-15T17:07:43.290Z,4.43
2023-05-15T17:10:13.099Z,6.07
2023-05-15T17:12:41.416Z,4.10
2023-05-15T17:15:10.265Z,3.97
2023-05-15T17:17:38.445Z,3.13
2023-05-15T17:20:09.432Z,4.67
2023-05-15T17:22:37.702Z,3.73
2023-05-15T17:25:07.085Z,3.60
2023-05-15T17:27:39.611Z,3.60
2023-05-15T17:30:09.408Z,3.60
2023-05-15T17:32:38.106Z,4.50
2023-05-15T17:35:08.440Z,2.90
2023-05-15T17:37:36.777Z,3.80
2023-05-15T17:40:05.793Z,3.93
2023-05-15T17:42:34.377Z,4.60
2023-05-15T17:45:03.112Z,4.10
2023-05-15T17:47:31.308Z,4.00
2023-05-15T17:49:59.503Z,4.30
2023-05-15T17:52:29.080Z,4.50
2023-05-15T17:54:57.406Z,3.73
2023-05-15T17:57:25.600Z,4.27
2023-05-15T17:59:54.090Z,4.73
2023-05-15T18:02:22.272Z,4.50
2023-05-15T18:04:51.124Z,4.70
2023-05-15T18:07:19.559Z,3.47
2023-05-15T18:09:49.044Z,4.33
2023-05-15T18:12:17.239Z,4.73
2023-05-15T18:14:46.057Z,4.97
2023-05-15T18:17:14.249Z,6.13
2023-05-15T18:19:44.777Z,6.50
2023-05-15T18:22:13.081Z,6.63
2023-05-15T18:24:41.231Z,9.33
2023-05-15T18:27:10.812Z,7.10
2023-05-15T18:29:39.218Z,7.23
2023-05-15T18:32:07.669Z,7.33
2023-05-15T18:34:35.897Z,7.90
2023-05-15T18:37:04.085Z,6.83
2023-05-15T18:39:32.262Z,7.10
2023-05-15T18:42:01.140Z,7.00
2023-05-15T18:44:32.310Z,8.83
2023-05-15T18:47:00.599Z,7.00
2023-05-15T18:49:29.032Z,6.90
2023-05-15T18:51:57.995Z,7.57
2023-05-15T18:54:26.655Z,7.20
2023-05-15T18:56:54.813Z,12.73
2023-05-15T18:59:23.432Z,7.13
2023-05-15T19:01:53.916Z,8.30
2023-05-15T19:04:22.288Z,7.20
2023-05-15T19:06:50.765Z,7.20
2023-05-15T19:09:19.039Z,7.60
2023-05-15T19:11:49.317Z,7.40
2023-05-15T19:14:18.067Z,8.00
2023-05-15T19:16:46.699Z,8.10
2023-05-15T19:19:16.300Z,7.47
2023-05-15T19:21:44.653Z,8.70
2023-05-15T19:24:12.833Z,8.90
2023-05-15T19:26:40.984Z,7.67
2023-05-15T19:29:09.113Z,8.20
2023-05-15T19:31:38.635Z,7.70
2023-05-15T19:34:06.968Z,7.90
2023-05-15T19:36:36.470Z,9.27
2023-05-15T19:39:04.753Z,7.70
2023-05-15T19:41:33.030Z,8.50
2023-05-15T19:44:02.069Z,7.87
2023-05-15T19:46:30.743Z,8.07
2023-05-15T19:48:58.952Z,9.10
2023-05-15T19:51:27.285Z,8.57
2023-05-15T19:53:59.350Z,9.10
2023-05-15T19:56:27.506Z,8.80
2023-05-15T19:58:55.773Z,8.50
2023-05-15T20:01:24.023Z,8.27
2023-05-15T20:03:52.776Z,7.90
2023-05-15T20:06:21.532Z,9.07
2023-05-15T20:08:50.027Z,9.87
2023-05-15T20:11:19.522Z,9.30
2023-05-15T20:13:47.811Z,7.07
2023-05-15T20:16:16.554Z,7.70
2023-05-15T20:18:47.904Z,8.00
2023-05-15T20:21:16.723Z,7.80
2023-05-15T20:23:44.960Z,7.60
2023-05-15T20:26:13.099Z,8.30
2023-05-15T20:28:45.018Z,8.17
2023-05-15T20:31:13.591Z,8.00
2023-05-15T20:33:41.901Z,9.30
2023-05-15T20:36:10.618Z,9.40
2023-05-15T20:38:39.079Z,7.63
2023-05-15T20:41:07.322Z,8.53
2023-05-15T20:43:35.607Z,8.70
2023-05-15T20:46:05.313Z,9.33
2023-05-15T20:48:33.600Z,7.37
2023-05-15T20:51:01.727Z,9.70
2023-05-15T20:53:29.853Z,8.20
2023-05-15T20:55:58.162Z,8.77
2023-05-15T20:58:26.308Z,8.57
2023-05-15T21:00:54.511Z,8.13
2023-05-15T21:03:24.504Z,8.93
2023-05-15T21:05:54.228Z,8.13
2023-05-15T21:08:24.299Z,8.23
2023-05-15T21:10:55.349Z,7.80
2023-05-15T21:13:23.591Z,9.40
2023-05-15T21:15:52.005Z,9.53
2023-05-15T21:18:20.222Z,7.77
2023-05-15T21:20:49.728Z,9.13
2023-05-15T21:23:18.180Z,8.90
2023-05-15T21:25:46.447Z,8.83
2023-05-15T21:28:14.725Z,8.23
2023-05-15T21:30:42.908Z,7.93
2023-05-15T21:33:11.259Z,8.70
2023-05-15T21:35:39.744Z,11.87
2023-05-15T21:38:09.274Z,7.77
2023-05-15T21:40:37.627Z,9.00
2023-05-15T21:43:05.856Z,8.63
2023-05-15T21:45:34.097Z,10.43
2023-05-15T21:48:02.385Z,9.10
2023-05-15T21:50:30.562Z,8.67
2023-05-15T21:52:58.754Z,8.80
2023-05-15T21:55:28.336Z,10.23
2023-05-15T21:57:56.865Z,10.03
2023-05-15T22:00:25.267Z,9.03
2023-05-15T22:02:53.676Z,8.83
2023-05-15T22:05:22.216Z,8.60
2023-05-15T22:07:50.946Z,9.10
2023-05-15T22:10:19.205Z,8.83
2023-05-15T22:12:49.526Z,8.90
2023-05-15T22:15:17.864Z,10.23
2023-05-15T22:17:46.071Z,8.07
2023-05-15T22:20:14.504Z,9.37
2023-05-15T22:22:43.227Z,8.53
2023-05-15T22:25:11.453Z,8.60
2023-05-15T22:27:39.674Z,9.10
2023-05-15T22:30:10.381Z,8.00
2023-05-15T22:32:41.693Z,14.40
2023-05-15T22:35:10.782Z,9.70
2023-05-15T22:37:40.712Z,9.70
2023-05-15T22:40:10.031Z,9.20
2023-05-15T22:42:38.215Z,8.97
2023-05-15T22:45:07.243Z,9.03
2023-05-15T22:47:36.739Z,10.40
2023-05-15T22:50:05.585Z,9.90
2023-05-15T22:52:33.765Z,9.17
2023-05-15T22:55:01.934Z,11.30
2023-05-15T22:57:30.119Z,9.23
2023-05-15T22:59:58.428Z,9.33
2023-05-15T23:02:27.032Z,9.30
2023-05-15T23:04:56.513Z,9.43
2023-05-15T23:07:24.800Z,9.70
2023-05-15T23:09:53.038Z,9.23
2023-05-15T23:12:21.418Z,10.73
2023-05-15T23:14:49.578Z,9.80
2023-05-15T23:17:17.755Z,9.80
2023-05-15T23:19:46.535Z,9.87
2023-05-15T23:22:16.092Z,9.83
2023-05-15T23:24:44.367Z,11.57
2023-05-15T23:27:12.562Z,10.17
2023-05-15T23:29:41.159Z,9.10
2023-05-15T23:32:09.340Z,10.60
2023-05-15T23:34:37.491Z,11.40
2023-05-15T23:37:06.081Z,12.40
2023-05-15T23:39:36.075Z,10.83
2023-05-15T23:42:04.418Z,9.37
2023-05-15T23:44:32.603Z,10.37
2023-05-15T23:47:01.272Z,10.20
2023-05-15T23:49:29.527Z,10.10
2023-05-15T23:51:57.735Z,11.53
2023-05-15T23:54:26.028Z,12.57
2023-05-15T23:56:55.734Z,12.50
2023-05-15T23:59:23.957Z,11.53
